sensor_id;sensor_type;location;lat;lon;timestamp;temperature;humidity
24730;DHT22;12832;52.392;13.066;2023-02-24T00:01:23;25.00;35.80
24730;DHT22;12832;52.392;13.066;2023-02-24T00:03:51;25.00;35.80
24730;DHT22;12832;52.392;13.066;2023-02-24T00:06:18;25.00;35.80
24730;DHT22;12832;52.392;13.066;2023-02-24T00:08:44;25.00;35.80
24730;DHT22;12832;52.392;13.066;2023-02-24T00:11:14;25.00;35.80
24730;DHT22;12832;52.392;13.066;2023-02-24T00:13:43;25.00;35.80
24730;DHT22;12832;52.392;13.066;2023-02-24T00:16:15;25.00;35.70
24730;DHT22;12832;52.392;13.066;2023-02-24T00:18:43;25.00;35.80
24730;DHT22;12832;52.392;13.066;2023-02-24T00:21:12;25.00;35.80
24730;DHT22;12832;52.392;13.066;2023-02-24T00:23:41;25.00;35.80
24730;DHT22;12832;52.392;13.066;2023-02-24T00:26:09;25.10;35.90
24730;DHT22;12832;52.392;13.066;2023-02-24T00:28:36;25.00;35.80
24730;DHT22;12832;52.392;13.066;2023-02-24T00:31:05;25.10;35.80
24730;DHT22;12832;52.392;13.066;2023-02-24T00:33:33;25.00;35.80
24730;DHT22;12832;52.392;13.066;2023-02-24T00:36:08;25.00;35.80
24730;DHT22;12832;52.392;13.066;2023-02-24T00:38:36;25.00;35.80
24730;DHT22;12832;52.392;13.066;2023-02-24T00:41:10;25.00;36.40
24730;DHT22;12832;52.392;13.066;2023-02-24T00:43:37;25.00;35.80
24730;DHT22;12832;52.392;13.066;2023-02-24T00:46:04;25.00;35.80
24730;DHT22;12832;52.392;13.066;2023-02-24T00:48:37;25.00;35.80
24730;DHT22;12832;52.392;13.066;2023-02-24T00:51:09;25.00;35.80
24730;DHT22;12832;52.392;13.066;2023-02-24T00:53:36;25.00;35.80
24730;DHT22;12832;52.392;13.066;2023-02-24T00:56:05;25.00;35.80
24730;DHT22;12832;52.392;13.066;2023-02-24T00:58:34;25.00;35.80
24730;DHT22;12832;52.392;13.066;2023-02-24T01:01:01;25.00;35.70
24730;DHT22;12832;52.392;13.066;2023-02-24T01:03:28;25.00;35.70
24730;DHT22;12832;52.392;13.066;2023-02-24T01:05:55;25.00;35.80
24730;DHT22;12832;52.392;13.066;2023-02-24T01:08:21;25.00;35.80
24730;DHT22;12832;52.392;13.066;2023-02-24T01:10:57;25.10;35.80
24730;DHT22;12832;52.392;13.066;2023-02-24T01:13:43;25.10;35.80
24730;DHT22;12832;52.392;13.066;2023-02-24T01:16:10;25.10;35.80
24730;DHT22;12832;52.392;13.066;2023-02-24T01:18:39;25.10;35.80
24730;DHT22;12832;52.392;13.066;2023-02-24T01:21:05;25.00;35.80
24730;DHT22;12832;52.392;13.066;2023-02-24T01:23:31;25.00;35.70
24730;DHT22;12832;52.392;13.066;2023-02-24T01:25:57;25.00;36.40
24730;DHT22;12832;52.392;13.066;2023-02-24T01:28:25;25.00;35.70
24730;DHT22;12832;52.392;13.066;2023-02-24T01:30:52;25.00;35.80
24730;DHT22;12832;52.392;13.066;2023-02-24T01:33:20;25.10;35.80
24730;DHT22;12832;52.392;13.066;2023-02-24T01:35:46;25.00;35.70
24730;DHT22;12832;52.392;13.066;2023-02-24T01:38:13;25.10;35.80
24730;DHT22;12832;52.392;13.066;2023-02-24T01:40:39;25.10;35.80
24730;DHT22;12832;52.392;13.066;2023-02-24T01:43:05;25.10;35.80
24730;DHT22;12832;52.392;13.066;2023-02-24T01:45:35;25.10;35.80
24730;DHT22;12832;52.392;13.066;2023-02-24T01:48:05;25.10;35.80
24730;DHT22;12832;52.392;13.066;2023-02-24T01:50:33;25.10;35.80
24730;DHT22;12832;52.392;13.066;2023-02-24T01:53:04;25.10;35.70
24730;DHT22;12832;52.392;13.066;2023-02-24T01:55:39;25.10;35.70
24730;DHT22;12832;52.392;13.066;2023-02-24T01:58:12;25.10;35.70
24730;DHT22;12832;52.392;13.066;2023-02-24T02:00:40;25.10;35.70
24730;DHT22;12832;52.392;13.066;2023-02-24T02:03:24;25.00;35.60
24730;DHT22;12832;52.392;13.066;2023-02-24T02:05:55;25.10;35.70
24730;DHT22;12832;52.392;13.066;2023-02-24T02:08:23;25.10;35.70
24730;DHT22;12832;52.392;13.066;2023-02-24T02:10:51;25.10;35.70
24730;DHT22;12832;52.392;13.066;2023-02-24T02:13:25;25.00;35.70
24730;DHT22;12832;52.392;13.066;2023-02-24T02:16:05;25.10;35.70
24730;DHT22;12832;52.392;13.066;2023-02-24T02:21:26;25.10;35.70
24730;DHT22;12832;52.392;13.066;2023-02-24T02:26:50;25.10;35.70
24730;DHT22;12832;52.392;13.066;2023-02-24T02:29:43;25.00;35.70
24730;DHT22;12832;52.392;13.066;2023-02-24T02:35:41;25.10;35.70
24730;DHT22;12832;52.392;13.066;2023-02-24T02:38:24;25.10;35.70
24730;DHT22;12832;52.392;13.066;2023-02-24T02:41:21;25.10;35.70
24730;DHT22;12832;52.392;13.066;2023-02-24T02:46:43;25.10;35.90
24730;DHT22;12832;52.392;13.066;2023-02-24T02:49:15;25.10;35.70
24730;DHT22;12832;52.392;13.066;2023-02-24T02:51:50;25.10;35.70
24730;DHT22;12832;52.392;13.066;2023-02-24T02:54:34;25.10;35.70
24730;DHT22;12832;52.392;13.066;2023-02-24T02:57:15;25.10;35.70
24730;DHT22;12832;52.392;13.066;2023-02-24T02:59:51;25.10;35.60
24730;DHT22;12832;52.392;13.066;2023-02-24T03:02:22;25.10;35.60
24730;DHT22;12832;52.392;13.066;2023-02-24T03:04:56;25.10;35.70
24730;DHT22;12832;52.392;13.066;2023-02-24T03:07:27;25.10;35.70
24730;DHT22;12832;52.392;13.066;2023-02-24T03:10:00;25.10;35.70
24730;DHT22;12832;52.392;13.066;2023-02-24T03:12:29;25.10;35.60
24730;DHT22;12832;52.392;13.066;2023-02-24T03:14:59;25.10;35.60
24730;DHT22;12832;52.392;13.066;2023-02-24T03:17:34;25.10;35.70
24730;DHT22;12832;52.392;13.066;2023-02-24T03:20:26;25.10;35.60
24730;DHT22;12832;52.392;13.066;2023-02-24T03:23:08;25.10;35.60
24730;DHT22;12832;52.392;13.066;2023-02-24T03:25:53;25.10;35.60
24730;DHT22;12832;52.392;13.066;2023-02-24T03:28:33;25.10;35.60
24730;DHT22;12832;52.392;13.066;2023-02-24T03:31:15;25.10;35.60
24730;DHT22;12832;52.392;13.066;2023-02-24T03:33:53;25.10;35.60
24730;DHT22;12832;52.392;13.066;2023-02-24T03:36:22;25.10;35.60
24730;DHT22;12832;52.392;13.066;2023-02-24T03:38:48;25.10;35.60
24730;DHT22;12832;52.392;13.066;2023-02-24T03:41:14;25.10;35.60
24730;DHT22;12832;52.392;13.066;2023-02-24T03:43:46;25.10;35.60
24730;DHT22;12832;52.392;13.066;2023-02-24T03:46:13;25.10;35.60
24730;DHT22;12832;52.392;13.066;2023-02-24T03:48:46;25.10;35.60
24730;DHT22;12832;52.392;13.066;2023-02-24T03:51:17;25.10;35.60
24730;DHT22;12832;52.392;13.066;2023-02-24T03:56:44;25.10;35.60
24730;DHT22;12832;52.392;13.066;2023-02-24T04:02:08;25.10;35.60
24730;DHT22;12832;52.392;13.066;2023-02-24T04:04:51;25.10;35.60
24730;DHT22;12832;52.392;13.066;2023-02-24T04:10:15;25.10;35.60
24730;DHT22;12832;52.392;13.066;2023-02-24T04:12:48;25.10;35.50
24730;DHT22;12832;52.392;13.066;2023-02-24T04:15:32;25.10;35.60
24730;DHT22;12832;52.392;13.066;2023-02-24T04:18:08;25.10;35.60
24730;DHT22;12832;52.392;13.066;2023-02-24T04:20:38;25.10;35.50
24730;DHT22;12832;52.392;13.066;2023-02-24T04:23:09;25.10;35.50
24730;DHT22;12832;52.392;13.066;2023-02-24T04:25:38;25.10;35.50
24730;DHT22;12832;52.392;13.066;2023-02-24T04:28:06;25.10;35.50
24730;DHT22;12832;52.392;13.066;2023-02-24T04:30:38;25.10;35.50
24730;DHT22;12832;52.392;13.066;2023-02-24T04:33:06;25.10;35.50
24730;DHT22;12832;52.392;13.066;2023-02-24T04:35:33;25.10;35.50
24730;DHT22;12832;52.392;13.066;2023-02-24T04:37:59;25.10;35.50
24730;DHT22;12832;52.392;13.066;2023-02-24T04:40:25;25.10;35.50
24730;DHT22;12832;52.392;13.066;2023-02-24T04:42:53;25.10;35.50
24730;DHT22;12832;52.392;13.066;2023-02-24T04:45:24;25.10;35.50
24730;DHT22;12832;52.392;13.066;2023-02-24T04:47:53;25.10;35.50
24730;DHT22;12832;52.392;13.066;2023-02-24T04:50:29;25.10;35.50
24730;DHT22;12832;52.392;13.066;2023-02-24T04:52:57;25.10;35.50
24730;DHT22;12832;52.392;13.066;2023-02-24T04:55:28;25.10;35.50
24730;DHT22;12832;52.392;13.066;2023-02-24T04:57:55;25.10;35.50
24730;DHT22;12832;52.392;13.066;2023-02-24T05:00:23;25.10;35.50
24730;DHT22;12832;52.392;13.066;2023-02-24T05:02:53;25.10;35.50
24730;DHT22;12832;52.392;13.066;2023-02-24T05:05:22;25.10;35.50
24730;DHT22;12832;52.392;13.066;2023-02-24T05:07:57;25.10;35.50
24730;DHT22;12832;52.392;13.066;2023-02-24T05:10:42;25.10;35.50
24730;DHT22;12832;52.392;13.066;2023-02-24T05:13:17;25.10;35.60
24730;DHT22;12832;52.392;13.066;2023-02-24T05:15:45;25.10;35.60
24730;DHT22;12832;52.392;13.066;2023-02-24T05:18:14;25.10;35.60
24730;DHT22;12832;52.392;13.066;2023-02-24T05:20:44;25.10;35.70
24730;DHT22;12832;52.392;13.066;2023-02-24T05:23:35;25.10;35.70
24730;DHT22;12832;52.392;13.066;2023-02-24T05:26:05;25.10;35.60
24730;DHT22;12832;52.392;13.066;2023-02-24T05:28:38;25.10;35.60
24730;DHT22;12832;52.392;13.066;2023-02-24T05:31:10;25.10;35.50
24730;DHT22;12832;52.392;13.066;2023-02-24T05:33:41;25.10;35.50
24730;DHT22;12832;52.392;13.066;2023-02-24T05:36:10;25.10;35.40
24730;DHT22;12832;52.392;13.066;2023-02-24T05:38:37;25.10;35.40
24730;DHT22;12832;52.392;13.066;2023-02-24T05:41:13;25.10;35.40
24730;DHT22;12832;52.392;13.066;2023-02-24T05:43:44;25.10;35.40
24730;DHT22;12832;52.392;13.066;2023-02-24T05:46:25;25.10;35.30
24730;DHT22;12832;52.392;13.066;2023-02-24T05:48:56;25.10;35.00
24730;DHT22;12832;52.392;13.066;2023-02-24T05:51:23;25.10;35.00
24730;DHT22;12832;52.392;13.066;2023-02-24T05:53:57;25.10;34.80
24730;DHT22;12832;52.392;13.066;2023-02-24T05:56:23;25.10;34.60
24730;DHT22;12832;52.392;13.066;2023-02-24T05:58:50;25.10;34.60
24730;DHT22;12832;52.392;13.066;2023-02-24T06:01:28;25.10;34.50
24730;DHT22;12832;52.392;13.066;2023-02-24T06:03:55;25.10;33.10
24730;DHT22;12832;52.392;13.066;2023-02-24T06:06:40;25.00;32.70
24730;DHT22;12832;52.392;13.066;2023-02-24T06:09:11;25.00;32.50
24730;DHT22;12832;52.392;13.066;2023-02-24T06:11:40;24.90;32.40
24730;DHT22;12832;52.392;13.066;2023-02-24T06:14:08;24.90;32.20
24730;DHT22;12832;52.392;13.066;2023-02-24T06:16:36;24.90;32.00
24730;DHT22;12832;52.392;13.066;2023-02-24T06:19:03;24.80;31.80
24730;DHT22;12832;52.392;13.066;2023-02-24T06:21:37;24.80;32.60
24730;DHT22;12832;52.392;13.066;2023-02-24T06:24:11;24.80;31.90
24730;DHT22;12832;52.392;13.066;2023-02-24T06:26:41;24.80;31.90
24730;DHT22;12832;52.392;13.066;2023-02-24T06:29:16;24.70;31.80
24730;DHT22;12832;52.392;13.066;2023-02-24T06:31:43;24.70;31.80
24730;DHT22;12832;52.392;13.066;2023-02-24T06:34:10;24.70;31.60
24730;DHT22;12832;52.392;13.066;2023-02-24T06:36:37;24.70;31.30
24730;DHT22;12832;52.392;13.066;2023-02-24T06:39:05;24.70;31.30
24730;DHT22;12832;52.392;13.066;2023-02-24T06:41:34;24.70;31.40
24730;DHT22;12832;52.392;13.066;2023-02-24T06:44:00;24.60;31.50
24730;DHT22;12832;52.392;13.066;2023-02-24T06:46:26;24.60;31.40
24730;DHT22;12832;52.392;13.066;2023-02-24T06:48:53;24.60;31.40
24730;DHT22;12832;52.392;13.066;2023-02-24T06:51:19;24.60;31.30
24730;DHT22;12832;52.392;13.066;2023-02-24T06:53:46;24.60;30.90
24730;DHT22;12832;52.392;13.066;2023-02-24T06:56:15;24.60;30.90
24730;DHT22;12832;52.392;13.066;2023-02-24T06:58:47;24.60;30.90
24730;DHT22;12832;52.392;13.066;2023-02-24T07:01:19;24.60;30.90
24730;DHT22;12832;52.392;13.066;2023-02-24T07:03:46;24.60;30.90
24730;DHT22;12832;52.392;13.066;2023-02-24T07:06:32;24.60;30.90
24730;DHT22;12832;52.392;13.066;2023-02-24T07:09:01;24.60;30.90
24730;DHT22;12832;52.392;13.066;2023-02-24T07:11:30;24.50;30.60
24730;DHT22;12832;52.392;13.066;2023-02-24T07:13:57;24.50;30.40
24730;DHT22;12832;52.392;13.066;2023-02-24T07:16:24;24.50;30.40
24730;DHT22;12832;52.392;13.066;2023-02-24T07:18:55;24.50;30.30
24730;DHT22;12832;52.392;13.066;2023-02-24T07:21:22;24.50;30.40
24730;DHT22;12832;52.392;13.066;2023-02-24T07:23:49;24.50;30.40
24730;DHT22;12832;52.392;13.066;2023-02-24T07:26:25;24.50;30.50
24730;DHT22;12832;52.392;13.066;2023-02-24T07:28:53;24.50;30.40
24730;DHT22;12832;52.392;13.066;2023-02-24T07:31:23;24.50;30.20
24730;DHT22;12832;52.392;13.066;2023-02-24T07:33:55;24.50;30.10
24730;DHT22;12832;52.392;13.066;2023-02-24T07:36:22;24.50;30.00
24730;DHT22;12832;52.392;13.066;2023-02-24T07:38:56;24.50;30.20
24730;DHT22;12832;52.392;13.066;2023-02-24T07:41:25;24.50;30.20
24730;DHT22;12832;52.392;13.066;2023-02-24T07:43:53;24.50;30.30
24730;DHT22;12832;52.392;13.066;2023-02-24T07:46:25;24.50;30.50
24730;DHT22;12832;52.392;13.066;2023-02-24T07:48:54;24.50;30.30
24730;DHT22;12832;52.392;13.066;2023-02-24T07:51:23;24.50;30.20
24730;DHT22;12832;52.392;13.066;2023-02-24T07:53:51;24.50;30.20
24730;DHT22;12832;52.392;13.066;2023-02-24T07:56:20;24.40;30.10
24730;DHT22;12832;52.392;13.066;2023-02-24T07:58:55;24.50;30.20
24730;DHT22;12832;52.392;13.066;2023-02-24T08:01:29;24.40;30.20
24730;DHT22;12832;52.392;13.066;2023-02-24T08:04:05;24.50;30.30
24730;DHT22;12832;52.392;13.066;2023-02-24T08:06:35;24.40;30.20
24730;DHT22;12832;52.392;13.066;2023-02-24T08:09:13;24.40;30.50
24730;DHT22;12832;52.392;13.066;2023-02-24T08:11:44;24.40;30.70
24730;DHT22;12832;52.392;13.066;2023-02-24T08:14:12;24.40;30.90
24730;DHT22;12832;52.392;13.066;2023-02-24T08:16:43;24.40;30.90
24730;DHT22;12832;52.392;13.066;2023-02-24T08:19:13;24.40;30.80
24730;DHT22;12832;52.392;13.066;2023-02-24T08:21:40;24.40;30.80
24730;DHT22;12832;52.392;13.066;2023-02-24T08:24:20;24.40;30.70
24730;DHT22;12832;52.392;13.066;2023-02-24T08:26:53;24.40;30.70
24730;DHT22;12832;52.392;13.066;2023-02-24T08:29:38;24.40;30.60
24730;DHT22;12832;52.392;13.066;2023-02-24T08:32:27;24.40;30.60
24730;DHT22;12832;52.392;13.066;2023-02-24T08:35:06;24.40;30.70
24730;DHT22;12832;52.392;13.066;2023-02-24T08:37:41;24.40;30.60
24730;DHT22;12832;52.392;13.066;2023-02-24T08:40:18;24.40;31.10
24730;DHT22;12832;52.392;13.066;2023-02-24T08:42:59;24.40;31.00
24730;DHT22;12832;52.392;13.066;2023-02-24T08:45:34;24.40;30.70
24730;DHT22;12832;52.392;13.066;2023-02-24T08:48:03;24.40;30.80
24730;DHT22;12832;52.392;13.066;2023-02-24T08:50:46;24.40;31.00
24730;DHT22;12832;52.392;13.066;2023-02-24T08:53:13;24.40;30.50
24730;DHT22;12832;52.392;13.066;2023-02-24T08:55:47;24.40;30.40
24730;DHT22;12832;52.392;13.066;2023-02-24T08:58:20;24.40;30.20
24730;DHT22;12832;52.392;13.066;2023-02-24T09:00:56;24.40;30.20
24730;DHT22;12832;52.392;13.066;2023-02-24T09:03:26;24.40;30.60
24730;DHT22;12832;52.392;13.066;2023-02-24T09:06:06;24.40;31.20
24730;DHT22;12832;52.392;13.066;2023-02-24T09:08:36;24.50;31.10
24730;DHT22;12832;52.392;13.066;2023-02-24T09:11:14;24.50;30.60
24730;DHT22;12832;52.392;13.066;2023-02-24T09:13:44;24.50;30.30
24730;DHT22;12832;52.392;13.066;2023-02-24T09:16:18;24.60;30.10
24730;DHT22;12832;52.392;13.066;2023-02-24T09:18:45;24.50;30.10
24730;DHT22;12832;52.392;13.066;2023-02-24T09:21:31;24.50;30.00
24730;DHT22;12832;52.392;13.066;2023-02-24T09:24:13;24.60;30.10
24730;DHT22;12832;52.392;13.066;2023-02-24T09:26:42;24.60;30.10
24730;DHT22;12832;52.392;13.066;2023-02-24T09:29:12;24.60;29.90
24730;DHT22;12832;52.392;13.066;2023-02-24T09:31:59;24.60;29.90
24730;DHT22;12832;52.392;13.066;2023-02-24T09:34:38;24.60;30.00
24730;DHT22;12832;52.392;13.066;2023-02-24T09:37:14;24.60;29.90
24730;DHT22;12832;52.392;13.066;2023-02-24T09:39:53;24.60;29.80
24730;DHT22;12832;52.392;13.066;2023-02-24T09:42:30;24.60;29.70
24730;DHT22;12832;52.392;13.066;2023-02-24T09:45:22;24.60;29.60
24730;DHT22;12832;52.392;13.066;2023-02-24T09:48:21;24.60;29.50
24730;DHT22;12832;52.392;13.066;2023-02-24T09:50:49;24.60;29.50
24730;DHT22;12832;52.392;13.066;2023-02-24T09:53:32;24.60;29.40
24730;DHT22;12832;52.392;13.066;2023-02-24T09:58:42;24.60;29.50
24730;DHT22;12832;52.392;13.066;2023-02-24T10:07:16;24.60;30.90
24730;DHT22;12832;52.392;13.066;2023-02-24T10:09:52;24.60;30.00
24730;DHT22;12832;52.392;13.066;2023-02-24T10:12:31;24.60;29.80
24730;DHT22;12832;52.392;13.066;2023-02-24T10:15:10;24.60;29.60
24730;DHT22;12832;52.392;13.066;2023-02-24T10:17:49;24.60;29.50
24730;DHT22;12832;52.392;13.066;2023-02-24T10:20:19;24.60;29.70
24730;DHT22;12832;52.392;13.066;2023-02-24T10:23:21;24.60;30.00
24730;DHT22;12832;52.392;13.066;2023-02-24T10:26:41;24.60;29.60
24730;DHT22;12832;52.392;13.066;2023-02-24T10:32:16;24.50;29.70
24730;DHT22;12832;52.392;13.066;2023-02-24T10:34:50;24.60;29.90
24730;DHT22;12832;52.392;13.066;2023-02-24T10:37:20;24.60;29.80
24730;DHT22;12832;52.392;13.066;2023-02-24T10:40:00;24.50;29.70
24730;DHT22;12832;52.392;13.066;2023-02-24T10:42:36;24.60;29.80
24730;DHT22;12832;52.392;13.066;2023-02-24T10:47:57;24.50;29.70
24730;DHT22;12832;52.392;13.066;2023-02-24T10:50:28;24.50;29.50
24730;DHT22;12832;52.392;13.066;2023-02-24T10:53:08;24.50;29.30
24730;DHT22;12832;52.392;13.066;2023-02-24T10:55:51;24.50;30.30
24730;DHT22;12832;52.392;13.066;2023-02-24T11:00:55;24.50;29.90
24730;DHT22;12832;52.392;13.066;2023-02-24T11:03:52;24.40;29.50
24730;DHT22;12832;52.392;13.066;2023-02-24T11:06:49;24.40;29.50
24730;DHT22;12832;52.392;13.066;2023-02-24T11:09:25;24.50;29.40
24730;DHT22;12832;52.392;13.066;2023-02-24T11:11:55;24.40;29.40
24730;DHT22;12832;52.392;13.066;2023-02-24T11:14:53;24.40;29.30
24730;DHT22;12832;52.392;13.066;2023-02-24T11:18:05;24.40;29.20
24730;DHT22;12832;52.392;13.066;2023-02-24T11:20:41;24.40;29.20
24730;DHT22;12832;52.392;13.066;2023-02-24T11:23:24;24.40;29.20
24730;DHT22;12832;52.392;13.066;2023-02-24T11:25:57;24.40;29.20
24730;DHT22;12832;52.392;13.066;2023-02-24T11:28:42;24.40;29.40
24730;DHT22;12832;52.392;13.066;2023-02-24T11:31:27;24.40;29.80
24730;DHT22;12832;52.392;13.066;2023-02-24T11:36:36;24.40;30.00
24730;DHT22;12832;52.392;13.066;2023-02-24T11:39:18;24.40;29.70
24730;DHT22;12832;52.392;13.066;2023-02-24T11:41:51;24.40;29.90
24730;DHT22;12832;52.392;13.066;2023-02-24T11:44:32;24.40;30.40
24730;DHT22;12832;52.392;13.066;2023-02-24T11:47:08;24.40;29.90
24730;DHT22;12832;52.392;13.066;2023-02-24T11:49:52;24.40;30.00
24730;DHT22;12832;52.392;13.066;2023-02-24T11:52:30;24.40;30.10
24730;DHT22;12832;52.392;13.066;2023-02-24T11:54:59;24.40;30.20
24730;DHT22;12832;52.392;13.066;2023-02-24T11:57:34;24.40;30.20
24730;DHT22;12832;52.392;13.066;2023-02-24T12:00:18;24.40;30.30
24730;DHT22;12832;52.392;13.066;2023-02-24T12:03:04;24.40;30.30
24730;DHT22;12832;52.392;13.066;2023-02-24T12:05:36;24.40;30.40
24730;DHT22;12832;52.392;13.066;2023-02-24T12:08:11;24.30;30.10
24730;DHT22;12832;52.392;13.066;2023-02-24T12:10:45;24.40;30.10
24730;DHT22;12832;52.392;13.066;2023-02-24T12:13:38;24.30;30.00
24730;DHT22;12832;52.392;13.066;2023-02-24T12:16:15;24.40;30.00
24730;DHT22;12832;52.392;13.066;2023-02-24T12:18:57;24.40;30.00
24730;DHT22;12832;52.392;13.066;2023-02-24T12:23:57;24.40;30.00
24730;DHT22;12832;52.392;13.066;2023-02-24T12:29:39;24.30;30.00
24730;DHT22;12832;52.392;13.066;2023-02-24T12:32:45;24.30;29.90
24730;DHT22;12832;52.392;13.066;2023-02-24T12:35:33;24.30;29.90
24730;DHT22;12832;52.392;13.066;2023-02-24T12:38:09;24.30;29.90
24730;DHT22;12832;52.392;13.066;2023-02-24T12:43:57;24.30;29.90
24730;DHT22;12832;52.392;13.066;2023-02-24T12:46:34;24.30;29.80
24730;DHT22;12832;52.392;13.066;2023-02-24T12:54:37;24.30;29.80
24730;DHT22;12832;52.392;13.066;2023-02-24T12:57:22;24.30;29.80
24730;DHT22;12832;52.392;13.066;2023-02-24T12:59:51;24.30;29.80
24730;DHT22;12832;52.392;13.066;2023-02-24T13:02:35;24.30;29.80
24730;DHT22;12832;52.392;13.066;2023-02-24T13:05:15;24.30;29.80
24730;DHT22;12832;52.392;13.066;2023-02-24T13:08:00;24.30;29.80
24730;DHT22;12832;52.392;13.066;2023-02-24T13:10:43;24.30;29.80
24730;DHT22;12832;52.392;13.066;2023-02-24T13:16:01;24.30;29.80
24730;DHT22;12832;52.392;13.066;2023-02-24T13:18:33;24.30;29.90
24730;DHT22;12832;52.392;13.066;2023-02-24T13:23:41;24.30;29.90
24730;DHT22;12832;52.392;13.066;2023-02-24T13:26:07;24.20;29.90
24730;DHT22;12832;52.392;13.066;2023-02-24T13:28:36;24.30;30.00
24730;DHT22;12832;52.392;13.066;2023-02-24T13:31:08;24.30;30.00
24730;DHT22;12832;52.392;13.066;2023-02-24T13:33:37;24.30;30.00
24730;DHT22;12832;52.392;13.066;2023-02-24T13:36:22;24.30;30.00
24730;DHT22;12832;52.392;13.066;2023-02-24T13:39:05;24.30;30.00
24730;DHT22;12832;52.392;13.066;2023-02-24T13:41:34;24.30;30.00
24730;DHT22;12832;52.392;13.066;2023-02-24T13:49:42;24.30;29.90
24730;DHT22;12832;52.392;13.066;2023-02-24T13:54:56;24.20;29.90
24730;DHT22;12832;52.392;13.066;2023-02-24T13:57:35;24.20;30.00
24730;DHT22;12832;52.392;13.066;2023-02-24T14:02:49;24.30;29.90
24730;DHT22;12832;52.392;13.066;2023-02-24T14:05:26;24.30;29.90
24730;DHT22;12832;52.392;13.066;2023-02-24T14:07:53;24.20;29.90
24730;DHT22;12832;52.392;13.066;2023-02-24T14:10:22;24.20;29.90
24730;DHT22;12832;52.392;13.066;2023-02-24T14:15:30;24.20;29.80
24730;DHT22;12832;52.392;13.066;2023-02-24T14:18:01;24.20;29.80
24730;DHT22;12832;52.392;13.066;2023-02-24T14:20:35;24.30;29.90
24730;DHT22;12832;52.392;13.066;2023-02-24T14:23:29;24.20;29.90
24730;DHT22;12832;52.392;13.066;2023-02-24T14:26:05;24.20;29.80
24730;DHT22;12832;52.392;13.066;2023-02-24T14:28:36;24.20;29.80
24730;DHT22;12832;52.392;13.066;2023-02-24T14:31:12;24.20;29.90
24730;DHT22;12832;52.392;13.066;2023-02-24T14:33:41;24.20;29.80
24730;DHT22;12832;52.392;13.066;2023-02-24T14:36:21;24.20;29.80
24730;DHT22;12832;52.392;13.066;2023-02-24T14:41:37;24.20;29.80
24730;DHT22;12832;52.392;13.066;2023-02-24T14:46:50;24.20;29.80
24730;DHT22;12832;52.392;13.066;2023-02-24T14:49:23;24.20;29.80
24730;DHT22;12832;52.392;13.066;2023-02-24T14:52:02;24.20;29.90
24730;DHT22;12832;52.392;13.066;2023-02-24T14:54:52;24.20;29.90
24730;DHT22;12832;52.392;13.066;2023-02-24T14:57:23;24.20;29.80
24730;DHT22;12832;52.392;13.066;2023-02-24T15:00:03;24.20;29.80
24730;DHT22;12832;52.392;13.066;2023-02-24T15:02:40;24.20;29.80
24730;DHT22;12832;52.392;13.066;2023-02-24T15:05:09;24.20;29.90
24730;DHT22;12832;52.392;13.066;2023-02-24T15:07:37;24.20;29.80
24730;DHT22;12832;52.392;13.066;2023-02-24T15:10:05;24.20;29.80
24730;DHT22;12832;52.392;13.066;2023-02-24T15:12:33;24.20;29.80
24730;DHT22;12832;52.392;13.066;2023-02-24T15:15:07;24.20;29.80
24730;DHT22;12832;52.392;13.066;2023-02-24T15:17:38;24.20;29.80
24730;DHT22;12832;52.392;13.066;2023-02-24T15:20:24;24.20;29.80
24730;DHT22;12832;52.392;13.066;2023-02-24T15:22:51;24.20;29.80
24730;DHT22;12832;52.392;13.066;2023-02-24T15:25:21;24.20;29.80
24730;DHT22;12832;52.392;13.066;2023-02-24T15:28:02;24.20;29.90
24730;DHT22;12832;52.392;13.066;2023-02-24T15:33:18;24.20;29.80
24730;DHT22;12832;52.392;13.066;2023-02-24T15:35:50;24.20;29.80
24730;DHT22;12832;52.392;13.066;2023-02-24T15:38:34;24.20;29.80
24730;DHT22;12832;52.392;13.066;2023-02-24T15:41:02;24.20;29.80
24730;DHT22;12832;52.392;13.066;2023-02-24T15:43:35;24.20;29.80
24730;DHT22;12832;52.392;13.066;2023-02-24T15:48:45;24.20;29.90
24730;DHT22;12832;52.392;13.066;2023-02-24T15:51:23;24.20;29.80
24730;DHT22;12832;52.392;13.066;2023-02-24T15:53:52;24.10;29.80
24730;DHT22;12832;52.392;13.066;2023-02-24T15:56:19;24.20;29.80
24730;DHT22;12832;52.392;13.066;2023-02-24T15:58:45;24.20;29.80
24730;DHT22;12832;52.392;13.066;2023-02-24T16:01:12;24.20;29.80
24730;DHT22;12832;52.392;13.066;2023-02-24T16:03:38;24.20;29.80
24730;DHT22;12832;52.392;13.066;2023-02-24T16:06:06;24.20;29.80
24730;DHT22;12832;52.392;13.066;2023-02-24T16:08:33;24.20;29.80
24730;DHT22;12832;52.392;13.066;2023-02-24T16:11:10;24.20;29.80
24730;DHT22;12832;52.392;13.066;2023-02-24T16:13:36;24.20;30.00
24730;DHT22;12832;52.392;13.066;2023-02-24T16:16:05;24.10;29.90
24730;DHT22;12832;52.392;13.066;2023-02-24T16:18:32;24.20;30.00
24730;DHT22;12832;52.392;13.066;2023-02-24T16:20:58;24.20;29.90
24730;DHT22;12832;52.392;13.066;2023-02-24T16:23:25;24.20;29.80
24730;DHT22;12832;52.392;13.066;2023-02-24T16:25:57;24.20;29.80
24730;DHT22;12832;52.392;13.066;2023-02-24T16:28:24;24.20;29.90
24730;DHT22;12832;52.392;13.066;2023-02-24T16:30:50;24.20;30.00
24730;DHT22;12832;52.392;13.066;2023-02-24T16:33:18;24.20;30.00
24730;DHT22;12832;52.392;13.066;2023-02-24T16:35:46;24.10;29.90
24730;DHT22;12832;52.392;13.066;2023-02-24T16:38:13;24.20;30.00
24730;DHT22;12832;52.392;13.066;2023-02-24T16:40:42;24.20;29.90
24730;DHT22;12832;52.392;13.066;2023-02-24T16:43:09;24.20;29.90
24730;DHT22;12832;52.392;13.066;2023-02-24T16:45:35;24.10;29.90
24730;DHT22;12832;52.392;13.066;2023-02-24T16:48:05;24.20;30.00
24730;DHT22;12832;52.392;13.066;2023-02-24T16:50:37;24.10;29.90
24730;DHT22;12832;52.392;13.066;2023-02-24T16:53:06;24.20;29.90
24730;DHT22;12832;52.392;13.066;2023-02-24T16:55:36;24.20;30.00
24730;DHT22;12832;52.392;13.066;2023-02-24T16:58:02;24.20;29.90
24730;DHT22;12832;52.392;13.066;2023-02-24T17:00:28;24.20;29.90
24730;DHT22;12832;52.392;13.066;2023-02-24T17:02:54;24.20;29.90
24730;DHT22;12832;52.392;13.066;2023-02-24T17:05:22;24.20;29.90
24730;DHT22;12832;52.392;13.066;2023-02-24T17:07:51;24.20;29.90
24730;DHT22;12832;52.392;13.066;2023-02-24T17:10:18;24.20;30.00
24730;DHT22;12832;52.392;13.066;2023-02-24T17:12:45;24.20;29.90
24730;DHT22;12832;52.392;13.066;2023-02-24T17:15:21;24.20;29.90
24730;DHT22;12832;52.392;13.066;2023-02-24T17:17:48;24.20;29.90